Latest Coastal Weather Observations for Taree Airport

IDN60701

Issued at 5:02 pm EDT Sunday 7 February 2016 (issued every 10 minutes, with the page automatically refreshed every 10 minutes)

About coastal observations | Map of coastal stations | Coastal observations for NSW | Marine services | Other Formats
Station Details ID: 060141 Name: TAREE AIRPORT AWS Lat: -31.89 Lon: 152.51 Height: 8.0 m
Data from the previous 72 hours. | See also: Recent months at Taree Airport
Date/Time
EDT
Temp

°C
Wind Pressure Rain
since 9am
mm
Weather Cloud Vis
km
Sea
Height
m
Swell
Dir
 
Speed
knots
Gust
knots
hPa Trend Height
m
Period
s
Dir
07/05:00pm 25.0 ESE 10 14 1015.2 - 0.0 - - 10 - - - -
07/04:30pm 24.9 SE 11 17 1015.2 - 0.0 - - 10 - - - -
07/04:00pm 25.3 SE 11 17 1015.3 - 0.0 - - 10 - - - -
07/03:30pm 25.1 SE 11 17 1015.6 - 0.0 - - 10 - - - -
07/03:00pm 25.1 SE 10 16 1015.9 - 0.0 - - 10 - - - -
07/02:30pm 25.2 SSE 11 16 1015.9 - 0.0 - - 10 - - - -
07/02:00pm 25.4 SE 11 15 1015.9 - 0.0 - Partly cloudy 10 - - - -
07/01:30pm 25.2 SE 11 15 1016.1 - 0.0 - Partly cloudy 10 - - - -
07/01:00pm 24.8 SSE 8 14 1016.2 - 0.0 - Partly cloudy 10 - - - -
07/12:30pm 25.4 S 8 10 1016.4 - 0.0 - Partly cloudy 10 - - - -
07/12:00pm 24.4 S 9 13 1016.7 - 0.0 - Partly cloudy 10 - - - -
07/11:30am 24.5 SSW 8 10 1016.9 - 0.0 - Partly cloudy 10 - - - -
07/11:00am 24.6 SSW 9 14 1017.0 - 0.0 - Partly cloudy 10 - - - -
07/10:30am 24.4 SSW 9 11 1016.9 - 0.0 - - 10 - - - -
07/10:00am 23.7 WSW 7 9 1017.0 - 0.0 - Partly cloudy 10 - - - -
07/09:30am 22.8 WSW 6 9 1016.9 - 0.0 - Partly cloudy 10 - - - -
07/09:00am 21.2 WSW 7 8 1016.9 - 0.0 - - 10 - - - -
07/08:30am 20.2 W 5 7 1016.8 - 0.0 - - 10 - - - -
07/08:00am 18.8 W 7 8 1016.8 - 0.0 - - 10 - - - -
07/07:30am 17.9 WSW 7 9 1016.4 - 0.0 - - 10 - - - -
07/07:00am 16.9 W 6 8 1016.1 - 0.0 - - 10 - - - -
07/06:30am 16.7 W 5 7 1015.7 - 0.0 - - 10 - - - -
07/06:00am 16.8 W 5 6 1015.6 - 0.0 - - 10 - - - -
07/05:30am 16.8 W 6 7 1015.4 - 0.0 - - 10 - - - -
07/05:00am 17.0 W 6 8 1015.3 - 0.0 - - 10 - - - -
07/04:30am 17.2 W 7 8 1015.4 - 0.0 - - 10 - - - -
07/04:00am 17.4 W 7 8 1015.4 - 0.0 - - 10 - - - -
07/03:30am 17.3 W 6 8 1015.4 - 0.0 - - 10 - - - -
07/03:00am 17.4 W 6 7 1015.5 - 0.0 - - 10 - - - -
07/02:30am 17.5 W 7 8 1015.8 - 0.0 - - 10 - - - -
07/02:00am 17.7 W 6 8 1016.0 - 0.0 - Partly cloudy 10 - - - -
07/01:30am 18.1 WNW 5 6 1016.2 - 0.0 - Partly cloudy 10 - - - -
07/01:00am 18.2 W 5 8 1016.4 - 0.0 - - 10 - - - -
07/12:30am 18.4 NW 3 4 1016.4 - 0.0 - - 10 - - - -
07/12:00am 18.9 W 6 6 1016.4 - 0.0 - - 10 - - - -
 
Date/Time
EDT
Temp

°C
Wind Pressure Rain
since 9am
mm
Weather Cloud Vis
km
Sea
Height
m
Swell
Dir
 
Speed
knots
Gust
knots
hPa Trend Height
m
Period
s
Dir
06/11:30pm 19.2 WSW 5 7 1016.7 - 0.0 - Partly cloudy 10 - - - -
06/11:00pm 19.5 W 6 7 1016.8 - 0.0 - - 10 - - - -
06/10:30pm 19.8 WSW 6 7 1017.1 - 0.0 - - 10 - - - -
06/10:00pm 19.6 WSW 5 6 1016.6 - 0.0 - - 10 - - - -
06/09:30pm 20.1 SW 4 5 1016.4 - 0.0 - - 10 - - - -
06/09:00pm 20.7 SSW 5 7 1016.2 - 0.0 - Mostly clear 10 - - - -
06/08:30pm 20.9 SW 4 5 1016.1 - 0.0 - - 10 - - - -
06/08:00pm 21.2 SSW 5 6 1016.1 - 0.0 - - 10 - - - -
06/07:30pm 22.1 S 6 7 1015.9 - 0.0 - - 10 - - - -
06/07:00pm 22.6 SSE 7 9 1015.3 - 0.0 - - 10 - - - -
06/06:30pm 22.6 S 9 13 1014.9 - 0.0 - - 10 - - - -
06/06:00pm 23.0 S 11 17 1014.8 - 0.0 - - 10 - - - -
06/05:30pm 23.2 SSE 11 16 1014.5 - 0.0 - Partly cloudy 10 - - - -
06/05:00pm 24.0 SSE 14 18 1014.5 - 0.0 - Partly cloudy 10 - - - -
06/04:30pm 24.1 SSE 14 17 1014.7 - 0.0 - - 10 - - - -
06/04:00pm 24.5 SSE 12 17 1014.7 - 0.0 - Partly cloudy 10 - - - -
06/03:30pm 24.5 SSE 13 18 1014.9 - 0.0 - Partly cloudy 10 - - - -
06/03:00pm 24.5 SSE 14 18 1015.1 - 0.0 - Mostly clear 10 - - - -
06/02:30pm 24.8 SE 13 17 1015.2 - 0.0 - Partly cloudy 10 - - - -
06/02:00pm 23.6 SE 13 18 1015.4 - 0.0 - Partly cloudy 10 - - - -
06/01:30pm 23.7 SSE 13 17 1015.6 - 0.0 - Cloudy 10 - - - -
06/01:00pm 23.6 SSE 12 17 1015.8 - 0.0 - Partly cloudy 10 - - - -
06/12:30pm 23.6 SSE 13 17 1016.0 - 0.0 - Partly cloudy 10 - - - -
06/12:00pm 23.7 SSE 9 13 1016.1 - 0.0 - Cloudy 10 - - - -
06/11:30am 23.0 SSE 11 16 1016.1 - 0.0 - Partly cloudy 10 - - - -
06/11:00am 22.6 SE 10 14 1016.4 - 0.0 - Partly cloudy 10 - - - -
06/10:30am 22.1 SE 11 18 1016.4 - 0.0 - Partly cloudy 10 - - - -
06/10:00am 22.3 SE 15 19 1016.4 - 0.0 - Partly cloudy 10 - - - -
06/09:30am 22.7 SSE 10 14 1016.1 - 0.0 - Partly cloudy 10 - - - -
06/09:00am 21.7 S 8 11 1016.0 - 56.6 Rain Cloudy 10 - - - -
06/08:30am 21.7 SSE 8 12 1015.9 - 56.6 - Cloudy 10 - - - -
06/08:00am 20.9 SSW 6 9 1015.7 - 56.6 - Partly cloudy 10 - - - -
06/07:30am 19.7 WSW 5 6 1015.4 - 56.6 - Partly cloudy 10 - - - -
06/07:00am 19.5 W 4 5 1015.1 - 56.6 - Partly cloudy 10 - - - -
06/06:30am 19.4 WSW 5 6 1014.6 - 56.6 - Partly cloudy 10 - - - -
06/06:00am 19.4 WSW 4 5 1014.4 - 56.6 Showers Cloudy 10 - - - -
06/05:30am 19.3 W 5 6 1014.2 - 56.6 - Partly cloudy 10 - - - -
06/05:00am 19.3 WSW 6 6 1014.1 - 56.6 - Cloudy 10 - - - -
06/04:30am 19.5 WSW 6 8 1014.2 - 56.6 - Partly cloudy 10 - - - -
06/04:00am 19.4 SW 5 7 1014.1 - 56.6 - Partly cloudy 10 - - - -
06/03:30am 19.5 SW 6 7 1014.2 - 56.6 - Partly cloudy 10 - - - -
06/03:00am 19.7 SW 7 9 1014.4 - 56.6 - Cloudy 10 - - - -
06/02:30am 19.9 SW 7 9 1014.5 - 56.6 - Cloudy 10 - - - -
06/02:00am 19.8 SSW 5 6 1014.7 - 56.6 - Cloudy 10 - - - -
06/01:30am 19.5 WSW 5 7 1014.9 - 56.6 - Cloudy 10 - - - -
06/01:24am 19.4 WSW 6 7 1014.9 - 56.6 - Cloudy 10 - - - -
06/01:00am 19.3 W 5 6 1015.1 - 56.2 - Partly cloudy 6 - - - -
06/12:56am 19.2 WSW 5 6 1015.2 - 56.2 - Partly cloudy 4 - - - -
06/12:44am 19.3 SW 6 7 1015.4 - 55.6 - Partly cloudy 4 - - - -
06/12:32am 19.3 W 5 6 1015.6 - 55.0 - Partly cloudy 5 - - - -
06/12:30am 19.2 W 5 6 1015.6 - 55.0 - Partly cloudy 6 - - - -
06/12:23am 19.3 WSW 6 8 1015.5 - 55.0 - Partly cloudy 10 - - - -
06/12:00am 19.2 SSW 5 7 1015.9 - 54.6 Showers Cloudy 4 - - - -
 
Date/Time
EDT
Temp

°C
Wind Pressure Rain
since 9am
mm
Weather Cloud Vis
km
Sea
Height
m
Swell
Dir
 
Speed
knots
Gust
knots
hPa Trend Height
m
Period
s
Dir
05/11:58pm 19.2 SSW 5 7 1015.9 - 54.6 - Partly cloudy 5 - - - -
05/11:49pm 19.2 S 5 8 1015.9 - 54.4 - Partly cloudy 10 - - - -
05/11:42pm 19.1 SSE 8 13 1016.0 - 54.4 - Partly cloudy 8 - - - -
05/11:30pm 19.3 SSE 11 16 1016.2 - 54.0 - Partly cloudy 3 - - - -
05/11:07pm 19.8 SE 5 13 1016.3 - 52.0 - Partly cloudy 5 - - - -
05/11:00pm 19.4 ESE 3 7 1016.3 - 52.0 - Partly cloudy 5 - - - -
05/10:57pm 19.3 ESE 5 7 1016.3 - 52.0 - Partly cloudy 5 - - - -
05/10:31pm 19.7 SE 7 11 1016.2 - 51.8 - Partly cloudy 10 - - - -
05/10:30pm 19.9 SE 8 13 1016.2 - 51.8 - Partly cloudy 10 - - - -
05/10:29pm 19.8 SE 8 13 1016.3 - 51.8 - Partly cloudy 10 - - - -
05/10:17pm 19.8 S 5 7 1016.3 - 51.8 - Partly cloudy 4 - - - -
05/10:15pm 19.8 SSW 5 7 1016.3 - 51.8 - Partly cloudy 5 - - - -
05/10:00pm 19.6 SSW 5 6 1016.0 - 51.2 - Partly cloudy 10 - - - -
05/09:32pm 19.4 SE 9 18 1015.9 - 51.2 - Partly cloudy 8 - - - -
05/09:30pm 19.4 SE 10 18 1016.0 - 51.2 - Partly cloudy 7 - - - -
05/09:22pm 19.8 SSE 9 16 1016.1 - 51.2 - Partly cloudy 7 - - - -
05/09:00pm 20.2 S 5 7 1015.8 - 51.0 Showers Cloudy 10 - - - -
05/08:30pm 20.2 S 7 8 1015.4 - 50.8 - Partly cloudy 10 - - - -
05/08:00pm 20.1 SSW 7 8 1015.0 - 50.8 - Partly cloudy 10 - - - -
05/07:30pm 20.3 SSW 11 15 1014.8 - 50.6 - Partly cloudy 10 - - - -
05/07:00pm 21.0 SSW 11 16 1014.3 - 50.6 - Partly cloudy 10 - - - -
05/06:30pm 21.5 S 6 9 1014.1 - 50.6 - Partly cloudy 10 - - - -
05/06:00pm 20.5 S 11 15 1013.8 - 50.6 Rain Cloudy 8 - - - -
05/05:30pm 21.3 SSE 13 20 1013.7 - 50.0 - Partly cloudy 9 - - - -
05/05:00pm 21.1 S 10 15 1013.8 - 50.0 - Partly cloudy 10 - - - -
05/04:30pm 20.8 SSE 12 18 1013.9 - 49.8 - Partly cloudy 10 - - - -
05/04:22pm 20.5 SSE 10 14 1014.0 - 49.8 - Partly cloudy 6 - - - -
05/04:00pm 20.4 S 15 21 1013.9 - 47.4 - Partly cloudy 3 - - - -
05/03:37pm 20.7 SE 8 15 1014.0 - 44.4 - Partly cloudy 4 - - - -
05/03:30pm 20.5 SSE 7 9 1014.2 - 44.0 - Partly cloudy 3 - - - -
05/03:16pm 20.7 SSW 6 10 1014.1 - 41.4 - Partly cloudy 9 - - - -
05/03:00pm 20.4 SSE 8 14 1014.2 - 41.2 Rain Cloudy 2 - - - -
05/02:53pm 20.0 SE 10 16 1014.4 - 40.6 - Partly cloudy 3 - - - -
05/02:36pm 20.4 SSE 8 12 1014.4 - 35.4 - Partly cloudy 4 - - - -
05/02:30pm 20.4 SE 9 18 1014.3 - 34.4 - Partly cloudy 3 - - - -
05/02:00pm 20.6 SE 9 14 1014.3 - 29.0 - Partly cloudy 4 - - - -
05/01:48pm 21.1 SSE 9 12 1014.3 - 27.2 - Partly cloudy 5 - - - -
05/01:30pm 21.0 SSE 11 16 1014.3 - 26.4 - Partly cloudy - - - - -
05/01:00pm 20.7 S 9 14 1014.4 - 26.0 - Partly cloudy - - - - -
05/12:30pm 20.6 SSE 9 13 1014.7 - 24.2 - Partly cloudy 3 - - - -
05/12:00pm 20.5 S 12 17 1014.7 - 21.8 Rain Cloudy 2 - - - -
05/11:30am 20.7 S 11 15 1014.6 - 19.4 - Partly cloudy 3 - - - -
05/11:00am 20.3 SSE 11 17 1014.5 - 16.4 - Partly cloudy 3 - - - -
05/10:30am 20.1 S 6 11 1014.4 - 10.4 - Partly cloudy 2 - - - -
05/10:03am 20.2 ESE 7 10 1014.0 - 3.8 - Partly cloudy 5 - - - -
05/10:01am 20.2 SE 7 10 1014.0 - 3.0 - Partly cloudy 8 - - - -
05/10:00am 20.3 SSE 7 10 1014.0 - 3.0 - Cloudy 8 - - - -
05/09:40am 20.5 SW 9 14 1013.7 - 2.0 - Cloudy 5 - - - -
05/09:33am 20.2 SW 9 15 1013.7 - 1.4 - Partly cloudy 10 - - - -
05/09:30am 20.3 SW 9 15 1013.6 - 1.2 - Partly cloudy 10 - - - -
05/09:21am 20.0 WSW 9 13 1013.6 - 1.2 - Partly cloudy 5 - - - -
05/09:05am 19.9 SW 10 14 1013.5 - 0.4 - Partly cloudy 5 - - - -
05/09:00am 19.8 SW 11 14 1013.5 - 35.0 Showers Cloudy 7 - - - -
05/08:30am 20.0 SW 13 18 1013.1 - 34.8 - Partly cloudy 10 - - - -
05/08:00am 19.8 SW 12 18 1012.8 - 34.8 - Partly cloudy 10 - - - -
05/07:56am 19.8 SW 11 18 1012.8 - 34.8 - Partly cloudy 10 - - - -
05/07:42am 19.6 SW 11 17 1012.7 - 34.8 - Partly cloudy 5 - - - -
05/07:30am 19.4 SW 13 17 1012.6 - 34.8 - Partly cloudy 6 - - - -
05/07:00am 19.9 SW 13 18 1012.5 - 34.8 - Partly cloudy 10 - - - -
05/06:30am 20.1 SW 9 16 1012.0 - 34.8 - Partly cloudy 10 - - - -
05/06:00am 19.9 WSW 7 10 1011.5 - 34.8 - Cloudy 10 - - - -
05/05:30am 20.2 SW 10 14 1011.2 - 34.8 - Partly cloudy 10 - - - -
05/05:00am 19.9 SW 10 14 1011.0 - 34.8 - Partly cloudy 10 - - - -
05/04:58am 19.9 SW 10 14 1011.0 - 34.8 - Partly cloudy 10 - - - -
05/04:47am 20.0 SW 9 13 1011.1 - 34.8 - Partly cloudy 5 - - - -
05/04:30am 20.3 SW 9 12 1010.9 - 34.8 - Partly cloudy 10 - - - -
05/04:00am 20.2 SW 9 13 1010.8 - 34.8 - Partly cloudy 10 - - - -
05/03:30am 20.0 SW 9 13 1011.0 - 34.8 - Partly cloudy 10 - - - -
05/03:00am 20.3 SW 10 14 1011.1 - 34.6 Showers Cloudy 10 - - - -
05/02:30am 20.4 SW 11 17 1011.0 - 34.4 - Partly cloudy 10 - - - -
05/02:00am 20.2 SW 11 16 1011.2 - 34.4 - Partly cloudy 10 - - - -
05/01:30am 20.3 SW 11 16 1011.5 - 34.4 - Partly cloudy 10 - - - -
05/01:00am 20.2 SW 12 17 1011.7 - 34.4 - Partly cloudy 10 - - - -
05/12:31am 20.1 SW 10 14 1011.8 - 34.2 - Partly cloudy 10 - - - -
05/12:30am 20.0 SW 10 14 1011.9 - 34.2 - Partly cloudy 10 - - - -
05/12:08am 20.0 SW 10 15 1012.0 - 34.0 - Partly cloudy 6 - - - -
05/12:00am 19.9 SW 10 14 1012.1 - 34.0 Rain Cloudy 7 - - - -
 
Date/Time
EDT
Temp

°C
Wind Pressure Rain
since 9am
mm
Weather Cloud Vis
km
Sea
Height
m
Swell
Dir
 
Speed
knots
Gust
knots
hPa Trend Height
m
Period
s
Dir
04/11:30pm 20.0 SW 11 18 1012.1 - 31.0 - Partly cloudy 2 - - - -
04/11:00pm 20.4 SSW 9 14 1012.0 - 22.8 - Partly cloudy 2 - - - -
04/10:49pm 20.6 SSW 10 16 1012.1 - 18.6 - Partly cloudy 5 - - - -
04/10:47pm 20.6 SSW 10 16 1012.0 - 17.4 - Partly cloudy 8 - - - -
04/10:30pm 20.5 SSW 7 13 1012.0 - 17.0 - Partly cloudy 2 - - - -
04/10:10pm 20.7 S 5 6 1011.9 - 10.8 - Partly cloudy 2 - - - -
04/10:00pm 20.7 SSW 7 9 1011.7 - 7.8 - Partly cloudy 2 - - - -
04/09:54pm 20.9 SSW 8 13 1011.7 - 6.0 - Partly cloudy 5 - - - -
04/09:48pm 21.0 SSW 10 14 1011.6 - 5.0 - Partly cloudy 10 - - - -
04/09:30pm 21.1 SSW 11 15 1011.5 - 5.0 - Partly cloudy 10 - - - -
04/09:27pm 21.1 SSW 11 15 1011.4 - 5.0 - Partly cloudy 10 - - - -
04/09:00pm 21.0 SW 9 14 1011.0 - 4.2 Showers Cloudy 10 - - - -
04/08:56pm 20.9 SW 8 14 1010.9 - 4.2 - Partly cloudy 10 - - - -
04/08:41pm 20.7 SW 7 9 1011.0 - 4.2 - Partly cloudy 4 - - - -
04/08:30pm 20.7 SSW 9 13 1010.9 - 2.8 - Partly cloudy 2 - - - -
04/08:23pm 21.2 SW 10 16 1011.0 - 0.8 - Partly cloudy 5 - - - -
04/08:00pm 21.5 SW 9 11 1010.6 - 0.4 - Partly cloudy 10 - - - -
04/07:33pm 21.4 SW 8 11 1010.2 - 0.2 - Partly cloudy 10 - - - -
04/07:30pm 21.2 SW 9 13 1010.1 - 0.2 - Partly cloudy 10 - - - -
04/07:18pm 21.3 SW 12 18 1009.9 - 0.2 - Partly cloudy 5 - - - -
04/07:00pm 22.3 SSW 12 19 1009.8 - 0.0 - Partly cloudy 10 - - - -
04/06:30pm 22.3 SSW 11 16 1009.4 - 0.0 - Partly cloudy 10 - - - -
04/06:00pm 22.5 SSW 16 22 1008.9 - 0.0 Rain Cloudy 10 - - - -
04/05:30pm 22.7 SSW 15 21 1008.7 - 0.0 - Partly cloudy 10 - - - -

Other Formats:

Comma delimited format used in spreadsheet applications
http://www.bom.gov.au/fwo/IDN60701/IDN60701.95784.axf

JavaScript Object Notation format (JSON) in row-major order
http://www.bom.gov.au/fwo/IDN60701/IDN60701.95784.json